sensor_id;sensor_type;location;lat;lon;timestamp;P1;durP1;ratioP1;P2;durP2;ratioP2
69358;SDS011;56520;49.066;8.660;2023-02-18T00:02:08;3.22;;;1.20;;
69358;SDS011;56520;49.066;8.660;2023-02-18T00:04:34;3.30;;;1.30;;
69358;SDS011;56520;49.066;8.660;2023-02-18T00:06:59;1.15;;;0.88;;
69358;SDS011;56520;49.066;8.660;2023-02-18T00:09:25;3.50;;;1.15;;
69358;SDS011;56520;49.066;8.660;2023-02-18T00:11:51;3.65;;;1.20;;
69358;SDS011;56520;49.066;8.660;2023-02-18T00:14:17;2.60;;;1.10;;
69358;SDS011;56520;49.066;8.660;2023-02-18T00:16:43;2.95;;;1.17;;
69358;SDS011;56520;49.066;8.660;2023-02-18T00:19:10;2.42;;;1.02;;
69358;SDS011;56520;49.066;8.660;2023-02-18T00:21:41;2.45;;;1.00;;
69358;SDS011;56520;49.066;8.660;2023-02-18T00:24:07;2.55;;;1.02;;
69358;SDS011;56520;49.066;8.660;2023-02-18T00:26:33;2.35;;;1.10;;
69358;SDS011;56520;49.066;8.660;2023-02-18T00:28:59;4.85;;;0.95;;
69358;SDS011;56520;49.066;8.660;2023-02-18T00:31:26;3.03;;;1.20;;
69358;SDS011;56520;49.066;8.660;2023-02-18T00:33:55;3.35;;;1.20;;
69358;SDS011;56520;49.066;8.660;2023-02-18T00:36:21;2.65;;;1.10;;
69358;SDS011;56520;49.066;8.660;2023-02-18T00:38:49;2.15;;;1.00;;
69358;SDS011;56520;49.066;8.660;2023-02-18T00:41:16;3.42;;;1.40;;
69358;SDS011;56520;49.066;8.660;2023-02-18T00:43:42;3.78;;;1.13;;
69358;SDS011;56520;49.066;8.660;2023-02-18T00:46:08;2.40;;;0.93;;
69358;SDS011;56520;49.066;8.660;2023-02-18T00:48:34;2.65;;;1.00;;
69358;SDS011;56520;49.066;8.660;2023-02-18T00:51:01;2.85;;;1.13;;
69358;SDS011;56520;49.066;8.660;2023-02-18T00:53:27;3.15;;;1.10;;
69358;SDS011;56520;49.066;8.660;2023-02-18T00:55:53;3.22;;;1.13;;
69358;SDS011;56520;49.066;8.660;2023-02-18T00:58:19;2.88;;;1.17;;
69358;SDS011;56520;49.066;8.660;2023-02-18T01:00:44;2.97;;;1.30;;
69358;SDS011;56520;49.066;8.660;2023-02-18T01:03:10;3.17;;;1.33;;
69358;SDS011;56520;49.066;8.660;2023-02-18T01:05:36;3.00;;;1.20;;
69358;SDS011;56520;49.066;8.660;2023-02-18T01:08:03;3.67;;;1.13;;
69358;SDS011;56520;49.066;8.660;2023-02-18T01:10:29;3.33;;;1.30;;
69358;SDS011;56520;49.066;8.660;2023-02-18T01:12:54;4.53;;;1.30;;
69358;SDS011;56520;49.066;8.660;2023-02-18T01:15:20;2.90;;;1.05;;
69358;SDS011;56520;49.066;8.660;2023-02-18T01:17:46;2.85;;;1.15;;
69358;SDS011;56520;49.066;8.660;2023-02-18T01:20:12;3.33;;;1.48;;
69358;SDS011;56520;49.066;8.660;2023-02-18T01:22:38;3.05;;;1.10;;
69358;SDS011;56520;49.066;8.660;2023-02-18T01:25:04;3.28;;;1.30;;
69358;SDS011;56520;49.066;8.660;2023-02-18T01:27:30;4.78;;;1.50;;
69358;SDS011;56520;49.066;8.660;2023-02-18T01:29:55;2.38;;;1.15;;
69358;SDS011;56520;49.066;8.660;2023-02-18T01:32:21;3.58;;;1.10;;
69358;SDS011;56520;49.066;8.660;2023-02-18T01:34:46;3.53;;;1.20;;
69358;SDS011;56520;49.066;8.660;2023-02-18T01:37:12;4.30;;;1.33;;
69358;SDS011;56520;49.066;8.660;2023-02-18T01:39:38;2.00;;;1.00;;
69358;SDS011;56520;49.066;8.660;2023-02-18T01:42:03;2.97;;;1.33;;
69358;SDS011;56520;49.066;8.660;2023-02-18T01:44:31;2.20;;;0.93;;
69358;SDS011;56520;49.066;8.660;2023-02-18T01:46:57;3.25;;;1.30;;
69358;SDS011;56520;49.066;8.660;2023-02-18T01:49:27;4.78;;;1.40;;
69358;SDS011;56520;49.066;8.660;2023-02-18T01:52:04;3.63;;;1.30;;
69358;SDS011;56520;49.066;8.660;2023-02-18T01:54:34;3.30;;;1.30;;
69358;SDS011;56520;49.066;8.660;2023-02-18T02:02:31;2.92;;;1.13;;
69358;SDS011;56520;49.066;8.660;2023-02-18T02:05:00;6.78;;;1.58;;
69358;SDS011;56520;49.066;8.660;2023-02-18T02:07:28;3.50;;;1.40;;
69358;SDS011;56520;49.066;8.660;2023-02-18T02:09:54;3.63;;;1.48;;
69358;SDS011;56520;49.066;8.660;2023-02-18T02:12:43;3.88;;;1.42;;
69358;SDS011;56520;49.066;8.660;2023-02-18T02:23:51;2.95;;;1.20;;
69358;SDS011;56520;49.066;8.660;2023-02-18T02:26:39;3.70;;;1.38;;
69358;SDS011;56520;49.066;8.660;2023-02-18T02:37:14;3.00;;;1.35;;
69358;SDS011;56520;49.066;8.660;2023-02-18T02:43:01;4.20;;;1.77;;
69358;SDS011;56520;49.066;8.660;2023-02-18T02:53:44;4.80;;;1.65;;
69358;SDS011;56520;49.066;8.660;2023-02-18T02:56:19;5.13;;;1.98;;
69358;SDS011;56520;49.066;8.660;2023-02-18T02:59:08;5.38;;;1.80;;
69358;SDS011;56520;49.066;8.660;2023-02-18T03:06:58;4.47;;;1.60;;
69358;SDS011;56520;49.066;8.660;2023-02-18T03:09:30;4.32;;;1.60;;
69358;SDS011;56520;49.066;8.660;2023-02-18T03:12:11;4.32;;;1.80;;
69358;SDS011;56520;49.066;8.660;2023-02-18T03:20:56;5.00;;;1.70;;
69358;SDS011;56520;49.066;8.660;2023-02-18T03:26:19;5.60;;;1.80;;
69358;SDS011;56520;49.066;8.660;2023-02-18T03:28:45;5.43;;;2.17;;
69358;SDS011;56520;49.066;8.660;2023-02-18T03:31:15;6.40;;;1.95;;
69358;SDS011;56520;49.066;8.660;2023-02-18T03:33:54;4.10;;;1.60;;
69358;SDS011;56520;49.066;8.660;2023-02-18T03:36:25;5.20;;;1.75;;
69358;SDS011;56520;49.066;8.660;2023-02-18T03:39:02;5.47;;;1.65;;
69358;SDS011;56520;49.066;8.660;2023-02-18T03:41:31;5.20;;;1.90;;
69358;SDS011;56520;49.066;8.660;2023-02-18T03:43:58;4.28;;;1.67;;
69358;SDS011;56520;49.066;8.660;2023-02-18T03:46:28;4.50;;;1.75;;
69358;SDS011;56520;49.066;8.660;2023-02-18T03:48:54;5.93;;;2.10;;
69358;SDS011;56520;49.066;8.660;2023-02-18T03:51:20;4.75;;;1.92;;
69358;SDS011;56520;49.066;8.660;2023-02-18T03:53:46;4.80;;;1.60;;
69358;SDS011;56520;49.066;8.660;2023-02-18T03:56:12;5.43;;;1.67;;
69358;SDS011;56520;49.066;8.660;2023-02-18T03:58:38;6.65;;;2.20;;
69358;SDS011;56520;49.066;8.660;2023-02-18T04:01:04;5.00;;;1.80;;
69358;SDS011;56520;49.066;8.660;2023-02-18T04:03:29;4.70;;;1.63;;
69358;SDS011;56520;49.066;8.660;2023-02-18T04:05:55;4.60;;;1.60;;
69358;SDS011;56520;49.066;8.660;2023-02-18T04:08:21;4.95;;;1.83;;
69358;SDS011;56520;49.066;8.660;2023-02-18T04:10:46;5.00;;;1.90;;
69358;SDS011;56520;49.066;8.660;2023-02-18T04:13:12;5.25;;;2.03;;
69358;SDS011;56520;49.066;8.660;2023-02-18T04:15:37;5.22;;;1.80;;
69358;SDS011;56520;49.066;8.660;2023-02-18T04:18:03;4.90;;;1.65;;
69358;SDS011;56520;49.066;8.660;2023-02-18T04:20:29;4.70;;;1.65;;
69358;SDS011;56520;49.066;8.660;2023-02-18T04:22:55;5.10;;;1.80;;
69358;SDS011;56520;49.066;8.660;2023-02-18T04:25:20;4.70;;;1.67;;
69358;SDS011;56520;49.066;8.660;2023-02-18T04:27:46;6.30;;;1.90;;
69358;SDS011;56520;49.066;8.660;2023-02-18T04:30:11;4.65;;;1.80;;
69358;SDS011;56520;49.066;8.660;2023-02-18T04:32:37;4.63;;;1.73;;
69358;SDS011;56520;49.066;8.660;2023-02-18T04:35:03;6.35;;;1.83;;
69358;SDS011;56520;49.066;8.660;2023-02-18T04:37:29;3.53;;;1.15;;
69358;SDS011;56520;49.066;8.660;2023-02-18T04:39:54;4.68;;;1.60;;
69358;SDS011;56520;49.066;8.660;2023-02-18T04:42:19;3.80;;;1.33;;
69358;SDS011;56520;49.066;8.660;2023-02-18T04:44:45;3.75;;;1.45;;
69358;SDS011;56520;49.066;8.660;2023-02-18T04:47:10;4.90;;;1.60;;
69358;SDS011;56520;49.066;8.660;2023-02-18T04:49:36;4.72;;;1.70;;
69358;SDS011;56520;49.066;8.660;2023-02-18T04:52:01;3.90;;;1.58;;
69358;SDS011;56520;49.066;8.660;2023-02-18T04:54:27;4.13;;;1.70;;
69358;SDS011;56520;49.066;8.660;2023-02-18T04:56:53;3.35;;;1.23;;
69358;SDS011;56520;49.066;8.660;2023-02-18T04:59:18;4.72;;;1.30;;
69358;SDS011;56520;49.066;8.660;2023-02-18T05:01:43;4.30;;;1.58;;
69358;SDS011;56520;49.066;8.660;2023-02-18T05:04:09;4.75;;;1.60;;
69358;SDS011;56520;49.066;8.660;2023-02-18T05:06:34;4.15;;;1.27;;
69358;SDS011;56520;49.066;8.660;2023-02-18T05:09:00;4.78;;;1.80;;
69358;SDS011;56520;49.066;8.660;2023-02-18T05:11:25;3.92;;;1.42;;
69358;SDS011;56520;49.066;8.660;2023-02-18T05:13:50;3.70;;;1.33;;
69358;SDS011;56520;49.066;8.660;2023-02-18T05:16:16;4.30;;;1.58;;
69358;SDS011;56520;49.066;8.660;2023-02-18T05:18:41;4.18;;;1.38;;
69358;SDS011;56520;49.066;8.660;2023-02-18T05:21:07;4.80;;;1.40;;
69358;SDS011;56520;49.066;8.660;2023-02-18T05:23:32;4.70;;;1.60;;
69358;SDS011;56520;49.066;8.660;2023-02-18T05:25:58;4.70;;;1.65;;
69358;SDS011;56520;49.066;8.660;2023-02-18T05:28:23;4.43;;;1.63;;
69358;SDS011;56520;49.066;8.660;2023-02-18T05:30:49;3.97;;;1.60;;
69358;SDS011;56520;49.066;8.660;2023-02-18T05:33:14;5.10;;;1.65;;
69358;SDS011;56520;49.066;8.660;2023-02-18T05:35:40;5.15;;;1.80;;
69358;SDS011;56520;49.066;8.660;2023-02-18T05:38:05;5.55;;;2.10;;
69358;SDS011;56520;49.066;8.660;2023-02-18T05:40:31;4.53;;;1.63;;
69358;SDS011;56520;49.066;8.660;2023-02-18T05:42:56;6.00;;;2.38;;
69358;SDS011;56520;49.066;8.660;2023-02-18T05:45:22;5.53;;;2.13;;
69358;SDS011;56520;49.066;8.660;2023-02-18T05:47:47;6.60;;;2.70;;
69358;SDS011;56520;49.066;8.660;2023-02-18T05:50:13;6.82;;;2.10;;
69358;SDS011;56520;49.066;8.660;2023-02-18T05:52:38;5.28;;;1.60;;
69358;SDS011;56520;49.066;8.660;2023-02-18T05:55:04;6.22;;;2.17;;
69358;SDS011;56520;49.066;8.660;2023-02-18T05:57:30;6.22;;;2.58;;
69358;SDS011;56520;49.066;8.660;2023-02-18T05:59:55;4.43;;;1.30;;
69358;SDS011;56520;49.066;8.660;2023-02-18T06:02:20;4.90;;;1.80;;
69358;SDS011;56520;49.066;8.660;2023-02-18T06:04:46;4.90;;;1.70;;
69358;SDS011;56520;49.066;8.660;2023-02-18T06:07:11;3.72;;;1.40;;
69358;SDS011;56520;49.066;8.660;2023-02-18T06:09:37;4.43;;;1.60;;
69358;SDS011;56520;49.066;8.660;2023-02-18T06:12:02;4.50;;;1.80;;
69358;SDS011;56520;49.066;8.660;2023-02-18T06:14:28;4.22;;;1.63;;
69358;SDS011;56520;49.066;8.660;2023-02-18T06:16:53;4.70;;;1.42;;
69358;SDS011;56520;49.066;8.660;2023-02-18T06:19:18;4.72;;;1.50;;
69358;SDS011;56520;49.066;8.660;2023-02-18T06:21:44;5.28;;;2.17;;
69358;SDS011;56520;49.066;8.660;2023-02-18T06:24:09;4.13;;;1.50;;
69358;SDS011;56520;49.066;8.660;2023-02-18T06:26:35;4.68;;;1.98;;
69358;SDS011;56520;49.066;8.660;2023-02-18T06:29:00;4.00;;;1.40;;
69358;SDS011;56520;49.066;8.660;2023-02-18T06:31:26;3.55;;;1.20;;
69358;SDS011;56520;49.066;8.660;2023-02-18T06:33:51;3.67;;;1.40;;
69358;SDS011;56520;49.066;8.660;2023-02-18T06:36:16;4.63;;;1.70;;
69358;SDS011;56520;49.066;8.660;2023-02-18T06:38:43;3.90;;;1.40;;
69358;SDS011;56520;49.066;8.660;2023-02-18T06:41:09;4.03;;;1.50;;
69358;SDS011;56520;49.066;8.660;2023-02-18T06:43:36;4.00;;;1.30;;
69358;SDS011;56520;49.066;8.660;2023-02-18T06:46:01;4.22;;;1.50;;
69358;SDS011;56520;49.066;8.660;2023-02-18T06:48:27;4.53;;;1.60;;
69358;SDS011;56520;49.066;8.660;2023-02-18T06:50:53;3.72;;;1.20;;
69358;SDS011;56520;49.066;8.660;2023-02-18T06:53:19;5.97;;;1.50;;
69358;SDS011;56520;49.066;8.660;2023-02-18T06:55:44;3.53;;;1.38;;
69358;SDS011;56520;49.066;8.660;2023-02-18T06:58:10;4.30;;;1.40;;
69358;SDS011;56520;49.066;8.660;2023-02-18T07:00:36;3.75;;;1.48;;
69358;SDS011;56520;49.066;8.660;2023-02-18T07:03:02;4.85;;;1.42;;
69358;SDS011;56520;49.066;8.660;2023-02-18T07:05:28;5.38;;;1.30;;
69358;SDS011;56520;49.066;8.660;2023-02-18T07:07:56;4.22;;;1.50;;
69358;SDS011;56520;49.066;8.660;2023-02-18T07:10:21;3.60;;;1.20;;
69358;SDS011;56520;49.066;8.660;2023-02-18T07:12:47;4.75;;;1.80;;
69358;SDS011;56520;49.066;8.660;2023-02-18T07:15:12;4.15;;;1.52;;
69358;SDS011;56520;49.066;8.660;2023-02-18T07:17:38;5.35;;;1.80;;
69358;SDS011;56520;49.066;8.660;2023-02-18T07:20:03;7.35;;;1.70;;
69358;SDS011;56520;49.066;8.660;2023-02-18T07:22:29;4.10;;;1.58;;
69358;SDS011;56520;49.066;8.660;2023-02-18T07:24:55;5.22;;;2.00;;
69358;SDS011;56520;49.066;8.660;2023-02-18T07:27:20;6.72;;;2.40;;
69358;SDS011;56520;49.066;8.660;2023-02-18T07:29:46;5.38;;;1.83;;
69358;SDS011;56520;49.066;8.660;2023-02-18T07:32:12;7.05;;;2.00;;
69358;SDS011;56520;49.066;8.660;2023-02-18T07:34:38;4.30;;;1.60;;
69358;SDS011;56520;49.066;8.660;2023-02-18T07:37:03;5.93;;;2.08;;
69358;SDS011;56520;49.066;8.660;2023-02-18T07:39:42;6.07;;;1.90;;
69358;SDS011;56520;49.066;8.660;2023-02-18T07:42:09;5.60;;;2.20;;
69358;SDS011;56520;49.066;8.660;2023-02-18T07:44:35;5.93;;;1.50;;
69358;SDS011;56520;49.066;8.660;2023-02-18T07:47:01;3.97;;;1.20;;
69358;SDS011;56520;49.066;8.660;2023-02-18T07:49:28;3.80;;;1.40;;
69358;SDS011;56520;49.066;8.660;2023-02-18T07:51:53;4.38;;;1.55;;
69358;SDS011;56520;49.066;8.660;2023-02-18T07:54:18;3.55;;;1.42;;
69358;SDS011;56520;49.066;8.660;2023-02-18T07:56:44;6.38;;;1.60;;
69358;SDS011;56520;49.066;8.660;2023-02-18T07:59:10;3.70;;;1.30;;
69358;SDS011;56520;49.066;8.660;2023-02-18T08:01:36;3.33;;;1.10;;
69358;SDS011;56520;49.066;8.660;2023-02-18T08:04:01;3.22;;;1.20;;
69358;SDS011;56520;49.066;8.660;2023-02-18T08:06:28;3.75;;;1.52;;
69358;SDS011;56520;49.066;8.660;2023-02-18T08:08:57;3.97;;;1.50;;
69358;SDS011;56520;49.066;8.660;2023-02-18T08:11:22;4.00;;;1.40;;
69358;SDS011;56520;49.066;8.660;2023-02-18T08:13:48;5.65;;;1.55;;
69358;SDS011;56520;49.066;8.660;2023-02-18T08:16:14;3.60;;;1.30;;
69358;SDS011;56520;49.066;8.660;2023-02-18T08:18:40;3.95;;;1.30;;
69358;SDS011;56520;49.066;8.660;2023-02-18T08:21:06;3.65;;;1.30;;
69358;SDS011;56520;49.066;8.660;2023-02-18T08:23:31;4.85;;;1.30;;
69358;SDS011;56520;49.066;8.660;2023-02-18T08:26:00;5.55;;;1.35;;
69358;SDS011;56520;49.066;8.660;2023-02-18T08:28:25;5.53;;;1.98;;
69358;SDS011;56520;49.066;8.660;2023-02-18T08:30:52;7.07;;;2.20;;
69358;SDS011;56520;49.066;8.660;2023-02-18T08:33:18;2.42;;;0.93;;
69358;SDS011;56520;49.066;8.660;2023-02-18T08:35:44;4.05;;;1.38;;
69358;SDS011;56520;49.066;8.660;2023-02-18T08:38:11;4.45;;;1.60;;
69358;SDS011;56520;49.066;8.660;2023-02-18T08:40:37;3.58;;;1.05;;
69358;SDS011;56520;49.066;8.660;2023-02-18T08:43:02;4.95;;;1.67;;
69358;SDS011;56520;49.066;8.660;2023-02-18T08:45:28;4.00;;;1.55;;
69358;SDS011;56520;49.066;8.660;2023-02-18T08:47:54;3.53;;;1.35;;
69358;SDS011;56520;49.066;8.660;2023-02-18T08:50:19;3.50;;;1.30;;
69358;SDS011;56520;49.066;8.660;2023-02-18T08:52:45;2.85;;;1.13;;
69358;SDS011;56520;49.066;8.660;2023-02-18T08:55:11;4.25;;;1.58;;
69358;SDS011;56520;49.066;8.660;2023-02-18T08:57:37;5.63;;;1.40;;
69358;SDS011;56520;49.066;8.660;2023-02-18T09:00:03;4.50;;;1.40;;
69358;SDS011;56520;49.066;8.660;2023-02-18T09:02:30;3.53;;;1.23;;
69358;SDS011;56520;49.066;8.660;2023-02-18T09:04:55;3.17;;;1.30;;
69358;SDS011;56520;49.066;8.660;2023-02-18T09:07:21;3.08;;;1.13;;
69358;SDS011;56520;49.066;8.660;2023-02-18T09:09:46;4.22;;;1.80;;
69358;SDS011;56520;49.066;8.660;2023-02-18T09:12:12;3.70;;;1.40;;
69358;SDS011;56520;49.066;8.660;2023-02-18T09:14:37;4.18;;;1.42;;
69358;SDS011;56520;49.066;8.660;2023-02-18T09:17:03;5.00;;;1.70;;
69358;SDS011;56520;49.066;8.660;2023-02-18T09:19:28;3.88;;;1.13;;
69358;SDS011;56520;49.066;8.660;2023-02-18T09:21:54;4.20;;;1.60;;
69358;SDS011;56520;49.066;8.660;2023-02-18T09:24:21;5.60;;;1.60;;
69358;SDS011;56520;49.066;8.660;2023-02-18T09:26:48;4.25;;;1.30;;
69358;SDS011;56520;49.066;8.660;2023-02-18T09:29:14;4.95;;;1.50;;
69358;SDS011;56520;49.066;8.660;2023-02-18T09:31:40;3.85;;;1.42;;
69358;SDS011;56520;49.066;8.660;2023-02-18T09:34:05;5.57;;;1.70;;
69358;SDS011;56520;49.066;8.660;2023-02-18T09:36:31;6.47;;;2.08;;
69358;SDS011;56520;49.066;8.660;2023-02-18T09:38:57;3.78;;;1.20;;
69358;SDS011;56520;49.066;8.660;2023-02-18T09:43:59;4.70;;;1.70;;
69358;SDS011;56520;49.066;8.660;2023-02-18T09:46:33;4.78;;;1.65;;
69358;SDS011;56520;49.066;8.660;2023-02-18T09:49:03;7.97;;;2.13;;
69358;SDS011;56520;49.066;8.660;2023-02-18T09:51:36;5.43;;;1.58;;
69358;SDS011;56520;49.066;8.660;2023-02-18T09:54:02;5.88;;;1.90;;
69358;SDS011;56520;49.066;8.660;2023-02-18T09:56:29;7.13;;;2.13;;
69358;SDS011;56520;49.066;8.660;2023-02-18T09:58:58;5.88;;;2.03;;
69358;SDS011;56520;49.066;8.660;2023-02-18T10:01:35;10.02;;;2.10;;
69358;SDS011;56520;49.066;8.660;2023-02-18T10:04:18;5.53;;;1.80;;
69358;SDS011;56520;49.066;8.660;2023-02-18T10:06:47;5.03;;;1.50;;
69358;SDS011;56520;49.066;8.660;2023-02-18T10:12:10;4.93;;;1.50;;
69358;SDS011;56520;49.066;8.660;2023-02-18T10:14:40;4.63;;;1.38;;
69358;SDS011;56520;49.066;8.660;2023-02-18T10:17:07;7.85;;;1.90;;
69358;SDS011;56520;49.066;8.660;2023-02-18T10:19:37;2.28;;;0.90;;
69358;SDS011;56520;49.066;8.660;2023-02-18T10:22:05;5.55;;;1.52;;
69358;SDS011;56520;49.066;8.660;2023-02-18T10:27:00;6.43;;;2.03;;
69358;SDS011;56520;49.066;8.660;2023-02-18T10:29:29;6.78;;;2.15;;
69358;SDS011;56520;49.066;8.660;2023-02-18T10:40:13;4.53;;;1.60;;
69358;SDS011;56520;49.066;8.660;2023-02-18T10:43:05;6.35;;;1.75;;
69358;SDS011;56520;49.066;8.660;2023-02-18T10:51:18;6.53;;;1.92;;
69358;SDS011;56520;49.066;8.660;2023-02-18T10:53:47;10.35;;;2.97;;
69358;SDS011;56520;49.066;8.660;2023-02-18T10:59:12;9.57;;;3.05;;
69358;SDS011;56520;49.066;8.660;2023-02-18T11:01:43;5.40;;;1.80;;
69358;SDS011;56520;49.066;8.660;2023-02-18T11:04:11;6.55;;;1.80;;
69358;SDS011;56520;49.066;8.660;2023-02-18T11:06:40;6.47;;;1.73;;
69358;SDS011;56520;49.066;8.660;2023-02-18T11:12:16;4.38;;;1.55;;
69358;SDS011;56520;49.066;8.660;2023-02-18T11:14:44;3.35;;;1.40;;
69358;SDS011;56520;49.066;8.660;2023-02-18T11:19:56;4.25;;;1.60;;
69358;SDS011;56520;49.066;8.660;2023-02-18T11:25:02;3.45;;;1.20;;
69358;SDS011;56520;49.066;8.660;2023-02-18T11:27:47;2.90;;;1.15;;
69358;SDS011;56520;49.066;8.660;2023-02-18T11:30:38;4.55;;;1.60;;
69358;SDS011;56520;49.066;8.660;2023-02-18T11:33:07;4.38;;;1.50;;
69358;SDS011;56520;49.066;8.660;2023-02-18T11:35:38;3.90;;;1.25;;
69358;SDS011;56520;49.066;8.660;2023-02-18T11:38:20;5.38;;;1.92;;
69358;SDS011;56520;49.066;8.660;2023-02-18T11:40:54;6.50;;;2.20;;
69358;SDS011;56520;49.066;8.660;2023-02-18T11:43:22;4.00;;;1.60;;
69358;SDS011;56520;49.066;8.660;2023-02-18T11:46:13;6.50;;;2.42;;
69358;SDS011;56520;49.066;8.660;2023-02-18T11:48:47;4.20;;;1.63;;
69358;SDS011;56520;49.066;8.660;2023-02-18T11:51:15;7.82;;;1.98;;
69358;SDS011;56520;49.066;8.660;2023-02-18T11:54:03;6.97;;;2.60;;
69358;SDS011;56520;49.066;8.660;2023-02-18T11:56:35;4.45;;;1.70;;
69358;SDS011;56520;49.066;8.660;2023-02-18T11:59:01;4.57;;;1.48;;
69358;SDS011;56520;49.066;8.660;2023-02-18T12:04:13;5.32;;;1.70;;
69358;SDS011;56520;49.066;8.660;2023-02-18T12:06:51;5.32;;;1.83;;
69358;SDS011;56520;49.066;8.660;2023-02-18T12:12:47;5.63;;;1.90;;
69358;SDS011;56520;49.066;8.660;2023-02-18T12:14:59;7.50;;;2.50;;
69358;SDS011;56520;49.066;8.660;2023-02-18T12:22:41;6.45;;;1.98;;
69358;SDS011;56520;49.066;8.660;2023-02-18T12:48:18;6.75;;;2.25;;
69358;SDS011;56520;49.066;8.660;2023-02-18T12:51:07;5.35;;;1.88;;
69358;SDS011;56520;49.066;8.660;2023-02-18T12:56:48;5.85;;;2.00;;
69358;SDS011;56520;49.066;8.660;2023-02-18T13:04:46;4.82;;;1.58;;
69358;SDS011;56520;49.066;8.660;2023-02-18T13:07:27;4.75;;;1.40;;
69358;SDS011;56520;49.066;8.660;2023-02-18T13:15:43;6.43;;;2.08;;
69358;SDS011;56520;49.066;8.660;2023-02-18T13:21:47;4.72;;;1.65;;
69358;SDS011;56520;49.066;8.660;2023-02-18T13:24:29;4.40;;;1.70;;
69358;SDS011;56520;49.066;8.660;2023-02-18T13:29:40;5.78;;;1.92;;
69358;SDS011;56520;49.066;8.660;2023-02-18T13:32:16;4.82;;;1.67;;
69358;SDS011;56520;49.066;8.660;2023-02-18T13:35:03;4.65;;;1.70;;
69358;SDS011;56520;49.066;8.660;2023-02-18T13:46:01;5.45;;;1.00;;
69358;SDS011;56520;49.066;8.660;2023-02-18T13:48:28;3.83;;;1.45;;
69358;SDS011;56520;49.066;8.660;2023-02-18T13:50:54;6.32;;;1.30;;
69358;SDS011;56520;49.066;8.660;2023-02-18T13:53:28;4.50;;;1.30;;
69358;SDS011;56520;49.066;8.660;2023-02-18T13:58:50;3.28;;;1.05;;
69358;SDS011;56520;49.066;8.660;2023-02-18T14:01:23;4.95;;;1.27;;
69358;SDS011;56520;49.066;8.660;2023-02-18T14:03:56;4.22;;;1.02;;
69358;SDS011;56520;49.066;8.660;2023-02-18T14:06:24;4.00;;;1.10;;
69358;SDS011;56520;49.066;8.660;2023-02-18T14:09:01;2.58;;;1.08;;
69358;SDS011;56520;49.066;8.660;2023-02-18T14:19:53;4.05;;;1.35;;
69358;SDS011;56520;49.066;8.660;2023-02-18T14:22:31;3.95;;;1.20;;
69358;SDS011;56520;49.066;8.660;2023-02-18T14:27:40;3.97;;;1.20;;
69358;SDS011;56520;49.066;8.660;2023-02-18T14:30:15;4.10;;;1.30;;
69358;SDS011;56520;49.066;8.660;2023-02-18T14:32:44;3.60;;;1.20;;
69358;SDS011;56520;49.066;8.660;2023-02-18T14:51:28;4.72;;;1.30;;
69358;SDS011;56520;49.066;8.660;2023-02-18T14:54:00;3.83;;;1.10;;
69358;SDS011;56520;49.066;8.660;2023-02-18T14:56:29;4.18;;;1.05;;
69358;SDS011;56520;49.066;8.660;2023-02-18T14:58:57;2.90;;;1.10;;
69358;SDS011;56520;49.066;8.660;2023-02-18T15:01:30;3.08;;;1.20;;
69358;SDS011;56520;49.066;8.660;2023-02-18T15:03:57;2.30;;;0.80;;
69358;SDS011;56520;49.066;8.660;2023-02-18T15:06:33;3.40;;;1.20;;
69358;SDS011;56520;49.066;8.660;2023-02-18T15:09:00;3.70;;;1.10;;
69358;SDS011;56520;49.066;8.660;2023-02-18T15:11:38;3.53;;;1.00;;
69358;SDS011;56520;49.066;8.660;2023-02-18T15:16:58;2.85;;;1.00;;
69358;SDS011;56520;49.066;8.660;2023-02-18T15:19:25;2.13;;;1.08;;
69358;SDS011;56520;49.066;8.660;2023-02-18T15:21:53;4.07;;;1.15;;
69358;SDS011;56520;49.066;8.660;2023-02-18T15:24:33;7.15;;;1.10;;
69358;SDS011;56520;49.066;8.660;2023-02-18T15:27:02;2.90;;;1.13;;
69358;SDS011;56520;49.066;8.660;2023-02-18T15:29:35;2.65;;;1.00;;
69358;SDS011;56520;49.066;8.660;2023-02-18T15:32:09;2.08;;;0.80;;
69358;SDS011;56520;49.066;8.660;2023-02-18T15:34:40;2.15;;;0.80;;
69358;SDS011;56520;49.066;8.660;2023-02-18T15:37:09;3.75;;;0.90;;
69358;SDS011;56520;49.066;8.660;2023-02-18T15:39:37;5.28;;;1.05;;
69358;SDS011;56520;49.066;8.660;2023-02-18T15:44:56;2.97;;;1.25;;
69358;SDS011;56520;49.066;8.660;2023-02-18T15:47:29;3.83;;;1.13;;
69358;SDS011;56520;49.066;8.660;2023-02-18T15:49:57;2.65;;;0.98;;
69358;SDS011;56520;49.066;8.660;2023-02-18T15:52:32;3.08;;;1.05;;
69358;SDS011;56520;49.066;8.660;2023-02-18T15:55:03;2.13;;;1.00;;
69358;SDS011;56520;49.066;8.660;2023-02-18T15:57:35;2.25;;;1.00;;
69358;SDS011;56520;49.066;8.660;2023-02-18T16:00:04;3.50;;;1.30;;
69358;SDS011;56520;49.066;8.660;2023-02-18T16:02:37;4.03;;;1.05;;
69358;SDS011;56520;49.066;8.660;2023-02-18T16:05:16;3.45;;;1.23;;
69358;SDS011;56520;49.066;8.660;2023-02-18T16:07:49;2.85;;;1.08;;
69358;SDS011;56520;49.066;8.660;2023-02-18T16:10:19;3.17;;;1.20;;
69358;SDS011;56520;49.066;8.660;2023-02-18T16:12:48;5.05;;;1.30;;
69358;SDS011;56520;49.066;8.660;2023-02-18T16:15:24;3.42;;;1.20;;
69358;SDS011;56520;49.066;8.660;2023-02-18T16:17:51;2.85;;;1.23;;
69358;SDS011;56520;49.066;8.660;2023-02-18T16:20:28;2.95;;;1.17;;
69358;SDS011;56520;49.066;8.660;2023-02-18T16:22:54;3.00;;;1.05;;
69358;SDS011;56520;49.066;8.660;2023-02-18T16:30:31;3.22;;;1.15;;
69358;SDS011;56520;49.066;8.660;2023-02-18T16:33:00;2.25;;;0.95;;
69358;SDS011;56520;49.066;8.660;2023-02-18T16:35:27;5.90;;;1.48;;
69358;SDS011;56520;49.066;8.660;2023-02-18T16:37:54;4.25;;;1.27;;
69358;SDS011;56520;49.066;8.660;2023-02-18T16:42:47;3.70;;;1.27;;
69358;SDS011;56520;49.066;8.660;2023-02-18T16:45:12;3.78;;;1.05;;
69358;SDS011;56520;49.066;8.660;2023-02-18T16:47:38;2.42;;;1.00;;
69358;SDS011;56520;49.066;8.660;2023-02-18T16:50:04;2.85;;;1.23;;
69358;SDS011;56520;49.066;8.660;2023-02-18T16:52:38;3.30;;;1.15;;
69358;SDS011;56520;49.066;8.660;2023-02-18T16:55:08;3.17;;;1.15;;
69358;SDS011;56520;49.066;8.660;2023-02-18T16:57:44;3.15;;;1.38;;
69358;SDS011;56520;49.066;8.660;2023-02-18T17:00:10;3.90;;;1.52;;
69358;SDS011;56520;49.066;8.660;2023-02-18T17:02:36;3.58;;;1.45;;
69358;SDS011;56520;49.066;8.660;2023-02-18T17:05:02;4.35;;;1.42;;
69358;SDS011;56520;49.066;8.660;2023-02-18T17:07:28;3.45;;;1.38;;
69358;SDS011;56520;49.066;8.660;2023-02-18T17:09:56;4.70;;;1.40;;
69358;SDS011;56520;49.066;8.660;2023-02-18T17:12:22;3.55;;;1.30;;
69358;SDS011;56520;49.066;8.660;2023-02-18T17:14:48;3.53;;;1.33;;
69358;SDS011;56520;49.066;8.660;2023-02-18T17:17:14;3.50;;;1.30;;
69358;SDS011;56520;49.066;8.660;2023-02-18T17:19:41;3.42;;;1.35;;
69358;SDS011;56520;49.066;8.660;2023-02-18T17:22:08;3.72;;;1.35;;
69358;SDS011;56520;49.066;8.660;2023-02-18T17:24:37;3.55;;;1.23;;
69358;SDS011;56520;49.066;8.660;2023-02-18T17:27:02;3.20;;;1.40;;
69358;SDS011;56520;49.066;8.660;2023-02-18T17:29:32;3.28;;;1.27;;
69358;SDS011;56520;49.066;8.660;2023-02-18T17:31:57;4.45;;;1.50;;
69358;SDS011;56520;49.066;8.660;2023-02-18T17:34:24;4.18;;;1.33;;
69358;SDS011;56520;49.066;8.660;2023-02-18T17:36:51;3.35;;;1.42;;
69358;SDS011;56520;49.066;8.660;2023-02-18T17:39:17;3.30;;;1.08;;
69358;SDS011;56520;49.066;8.660;2023-02-18T17:41:44;3.85;;;1.40;;
69358;SDS011;56520;49.066;8.660;2023-02-18T17:44:17;3.35;;;1.30;;
69358;SDS011;56520;49.066;8.660;2023-02-18T17:46:47;3.75;;;1.45;;
69358;SDS011;56520;49.066;8.660;2023-02-18T17:49:14;3.80;;;1.30;;
69358;SDS011;56520;49.066;8.660;2023-02-18T17:51:40;4.82;;;1.50;;
69358;SDS011;56520;49.066;8.660;2023-02-18T17:54:13;3.60;;;1.25;;
69358;SDS011;56520;49.066;8.660;2023-02-18T17:56:42;3.17;;;1.30;;
69358;SDS011;56520;49.066;8.660;2023-02-18T17:59:08;4.22;;;1.52;;
69358;SDS011;56520;49.066;8.660;2023-02-18T18:01:35;3.80;;;1.50;;
69358;SDS011;56520;49.066;8.660;2023-02-18T18:04:00;4.47;;;1.70;;